createdAt,value
2019-02-06T00:01:05.912Z,2.63
2019-02-06T00:03:34.622Z,3.30
2019-02-06T00:06:03.366Z,3.37
2019-02-06T00:08:32.005Z,3.50
2019-02-06T00:11:00.812Z,3.40
2019-02-06T00:13:29.866Z,3.07
2019-02-06T00:15:58.526Z,2.90
2019-02-06T00:18:27.529Z,3.13
2019-02-06T00:20:56.167Z,2.83
2019-02-06T00:23:24.817Z,2.97
2019-02-06T00:25:53.449Z,3.30
2019-02-06T00:28:22.149Z,2.70
2019-02-06T00:30:51.182Z,3.17
2019-02-06T00:33:19.754Z,2.87
2019-02-06T00:35:48.402Z,3.10
2019-02-06T00:38:17.042Z,2.97
2019-02-06T00:40:45.694Z,2.90
2019-02-06T00:43:14.466Z,2.93
2019-02-06T00:45:43.482Z,2.80
2019-02-06T00:48:12.192Z,2.93
2019-02-06T00:50:40.898Z,2.87
2019-02-06T00:53:09.534Z,2.77
2019-02-06T00:55:38.101Z,3.20
2019-02-06T00:58:06.817Z,2.43
2019-02-06T01:00:35.710Z,3.03
2019-02-06T01:03:05.932Z,2.90
2019-02-06T01:05:38.532Z,2.90
2019-02-06T01:08:05.266Z,2.80
2019-02-06T01:10:33.978Z,3.17
2019-02-06T01:13:02.674Z,3.10
2019-02-06T01:15:31.383Z,3.03
2019-02-06T01:18:00.150Z,2.73
2019-02-06T01:20:28.966Z,2.63
2019-02-06T01:22:57.676Z,2.80
2019-02-06T01:25:26.422Z,2.27
2019-02-06T01:27:54.986Z,2.90
2019-02-06T01:30:25.203Z,2.73
2019-02-06T01:32:53.941Z,2.70
2019-02-06T01:35:22.634Z,2.67
2019-02-06T01:37:51.269Z,3.50
2019-02-06T01:40:20.926Z,3.17
2019-02-06T01:42:49.550Z,3.20
2019-02-06T01:45:19.896Z,3.23
2019-02-06T01:47:48.551Z,2.30
2019-02-06T01:50:19.026Z,1.97
2019-02-06T01:52:47.938Z,2.27
2019-02-06T01:55:17.149Z,2.17
2019-02-06T01:57:45.801Z,2.00
2019-02-06T02:00:25.090Z,2.10
2019-02-06T02:02:54.152Z,2.47
2019-02-06T02:05:23.369Z,2.33
2019-02-06T02:07:52.354Z,2.40
2019-02-06T02:10:21.585Z,2.33
2019-02-06T02:12:50.571Z,2.30
2019-02-06T02:15:20.090Z,2.20
2019-02-06T02:17:48.905Z,2.17
2019-02-06T02:20:24.369Z,2.10
2019-02-06T02:22:53.485Z,1.80
2019-02-06T02:25:22.269Z,1.77
2019-02-06T02:27:50.973Z,1.90
2019-02-06T02:30:24.294Z,1.83
2019-02-06T02:32:53.175Z,1.90
2019-02-06T02:35:21.746Z,2.00
2019-02-06T02:37:50.469Z,1.93
2019-02-06T02:40:19.094Z,2.13
2019-02-06T02:42:47.677Z,2.27
2019-02-06T02:45:18.078Z,2.10
2019-02-06T02:47:47.199Z,2.33
2019-02-06T02:50:15.953Z,2.50
2019-02-06T02:52:44.694Z,2.43
2019-02-06T02:55:14.299Z,2.67
2019-02-06T02:57:43.513Z,2.70
2019-02-06T03:00:21.871Z,2.13
2019-02-06T03:02:58.045Z,2.87
2019-02-06T03:05:28.638Z,3.00
2019-02-06T03:07:57.274Z,2.63
2019-02-06T03:10:26.002Z,2.87
2019-02-06T03:12:54.572Z,2.43
2019-02-06T03:15:23.586Z,2.67
2019-02-06T03:17:52.283Z,2.57
2019-02-06T03:20:20.961Z,2.63
2019-02-06T03:22:49.678Z,2.40
2019-02-06T03:25:18.317Z,3.60
2019-02-06T03:27:47.049Z,3.50
2019-02-06T03:30:19.625Z,3.30
2019-02-06T03:32:48.624Z,3.10
2019-02-06T03:35:17.377Z,3.00
2019-02-06T03:37:46.064Z,2.87
2019-02-06T03:40:19.145Z,2.80
2019-02-06T03:42:48.158Z,2.93
2019-02-06T03:45:17.274Z,2.73
2019-02-06T03:47:45.853Z,3.07
2019-02-06T03:50:17.646Z,3.50
2019-02-06T03:52:46.278Z,3.30
2019-02-06T03:55:15.118Z,3.10
2019-02-06T03:57:43.785Z,3.23
2019-02-06T04:00:18.308Z,3.27
2019-02-06T04:02:46.998Z,3.17
2019-02-06T04:05:15.928Z,3.03
2019-02-06T04:07:44.638Z,3.63
2019-02-06T04:10:20.401Z,3.43
2019-02-06T04:12:49.038Z,3.57
2019-02-06T04:15:18.243Z,4.00
2019-02-06T04:17:46.952Z,3.90
2019-02-06T04:20:16.658Z,3.00
2019-02-06T04:23:04.646Z,3.17
2019-02-06T04:25:33.518Z,3.40
2019-02-06T04:28:02.186Z,3.40
2019-02-06T04:30:30.775Z,3.57
2019-02-06T04:32:59.572Z,3.70
2019-02-06T04:35:28.209Z,3.40
2019-02-06T04:37:56.845Z,3.60
2019-02-06T04:40:25.500Z,4.13
2019-02-06T04:42:54.090Z,3.53
2019-02-06T04:45:22.667Z,4.00
2019-02-06T04:47:51.238Z,4.23
2019-02-06T04:50:19.958Z,3.90
2019-02-06T04:52:48.526Z,3.50
2019-02-06T04:55:18.183Z,3.93
2019-02-06T04:57:47.191Z,3.70
2019-02-06T05:00:21.407Z,4.23
2019-02-06T05:02:50.192Z,3.30
2019-02-06T05:05:18.902Z,2.63
2019-02-06T05:07:47.594Z,2.80
2019-02-06T05:10:16.295Z,3.27
2019-02-06T05:12:45.351Z,3.13
2019-02-06T05:15:15.867Z,2.80
2019-02-06T05:17:44.662Z,3.60
2019-02-06T05:20:19.294Z,3.77
2019-02-06T05:22:47.977Z,4.30
2019-02-06T05:25:16.546Z,2.90
2019-02-06T05:27:45.674Z,3.37
2019-02-06T05:30:14.494Z,3.77
2019-02-06T05:32:43.169Z,3.37
2019-02-06T05:35:11.987Z,4.30
2019-02-06T05:37:40.554Z,4.17
2019-02-06T05:40:11.080Z,4.00
2019-02-06T05:42:39.778Z,4.37
2019-02-06T05:45:10.510Z,4.43
2019-02-06T05:47:39.142Z,4.30
2019-02-06T05:50:13.882Z,4.07
2019-02-06T05:52:42.599Z,3.73
2019-02-06T05:55:11.907Z,3.57
2019-02-06T05:57:40.627Z,4.00
2019-02-06T06:00:13.566Z,4.30
2019-02-06T06:02:42.221Z,4.27
2019-02-06T06:05:11.030Z,3.23
2019-02-06T06:07:45.205Z,4.20
2019-02-06T06:10:12.978Z,4.37
2019-02-06T06:12:41.952Z,4.20
2019-02-06T06:15:12.790Z,4.53
2019-02-06T06:17:41.528Z,4.03
2019-02-06T06:20:16.086Z,3.83
2019-02-06T06:22:44.871Z,3.60
2019-02-06T06:25:15.489Z,3.60
2019-02-06T06:27:44.433Z,4.23
2019-02-06T06:30:15.866Z,3.20
2019-02-06T06:32:44.560Z,3.67
2019-02-06T06:35:14.262Z,3.80
2019-02-06T06:37:42.971Z,4.00
2019-02-06T06:40:17.543Z,4.07
2019-02-06T06:42:46.519Z,3.63
2019-02-06T06:45:18.117Z,3.40
2019-02-06T06:47:46.871Z,3.30
2019-02-06T06:50:18.088Z,3.27
2019-02-06T06:52:46.734Z,3.57
2019-02-06T06:55:16.541Z,4.13
2019-02-06T06:57:45.563Z,3.70
2019-02-06T07:00:16.971Z,3.63
2019-02-06T07:02:45.801Z,3.80
2019-02-06T07:05:16.169Z,4.20
2019-02-06T07:07:45.030Z,3.57
2019-02-06T07:10:16.021Z,2.87
2019-02-06T07:12:44.661Z,3.70
2019-02-06T07:15:18.708Z,3.50
2019-02-06T07:17:47.630Z,3.20
2019-02-06T07:20:18.052Z,3.60
2019-02-06T07:22:46.757Z,2.93
2019-02-06T07:25:17.898Z,3.63
2019-02-06T07:27:46.593Z,2.97
2019-02-06T07:30:29.567Z,3.40
2019-02-06T07:32:58.874Z,3.20
2019-02-06T07:35:27.893Z,3.17
2019-02-06T07:37:57.219Z,2.83
2019-02-06T07:40:26.223Z,3.53
2019-02-06T07:42:55.050Z,2.73
2019-02-06T07:45:23.637Z,2.80
2019-02-06T07:47:52.294Z,3.10
2019-02-06T07:50:23.981Z,3.00
2019-02-06T07:52:52.639Z,2.90
2019-02-06T07:55:21.335Z,2.87
2019-02-06T07:57:50.162Z,2.57
2019-02-06T08:00:18.924Z,2.30
2019-02-06T08:02:48.195Z,2.33
2019-02-06T08:05:21.578Z,2.80
2019-02-06T08:07:51.096Z,2.67
2019-02-06T08:10:22.747Z,2.37
2019-02-06T08:12:51.553Z,2.47
2019-02-06T08:15:20.921Z,2.23
2019-02-06T08:17:49.722Z,2.00
2019-02-06T08:20:22.537Z,2.10
2019-02-06T08:22:51.751Z,2.60
2019-02-06T08:25:22.467Z,2.00
2019-02-06T08:27:51.430Z,2.23
2019-02-06T08:30:25.754Z,2.30
2019-02-06T08:32:54.819Z,1.80
2019-02-06T08:35:23.622Z,2.10
2019-02-06T08:37:52.530Z,1.63
2019-02-06T08:40:24.202Z,2.10
2019-02-06T08:42:53.302Z,1.90
2019-02-06T08:45:22.121Z,1.93
2019-02-06T08:47:50.762Z,1.90
2019-02-06T08:50:21.590Z,1.90
2019-02-06T08:52:50.802Z,1.70
2019-02-06T08:55:24.858Z,1.70
2019-02-06T08:57:54.174Z,1.80
2019-02-06T09:00:32.055Z,2.20
2019-02-06T09:03:01.131Z,1.83
2019-02-06T09:05:30.110Z,1.50
2019-02-06T09:07:58.833Z,1.90
2019-02-06T09:10:31.658Z,1.83
2019-02-06T09:13:19.646Z,1.87
2019-02-06T09:15:48.588Z,1.83
2019-02-06T09:18:17.231Z,1.73
2019-02-06T09:20:45.881Z,1.80
2019-02-06T09:23:14.542Z,1.93
2019-02-06T09:25:43.210Z,1.77
2019-02-06T09:28:11.782Z,2.10
2019-02-06T09:30:40.537Z,1.80
2019-02-06T09:33:09.282Z,1.70
2019-02-06T09:35:38.142Z,2.17
2019-02-06T09:38:06.794Z,1.97
2019-02-06T09:40:35.433Z,2.00
2019-02-06T09:43:04.168Z,2.10
2019-02-06T09:45:32.893Z,1.80
2019-02-06T09:48:03.071Z,2.10
2019-02-06T09:50:34.015Z,2.00
2019-02-06T09:53:02.724Z,2.00
2019-02-06T09:55:31.836Z,2.13
2019-02-06T09:58:00.540Z,2.10
2019-02-06T10:00:34.197Z,1.77
2019-02-06T10:03:03.405Z,2.00
2019-02-06T10:05:32.098Z,2.60
2019-02-06T10:08:00.847Z,2.30
2019-02-06T10:10:29.847Z,1.73
2019-02-06T10:12:58.497Z,2.57
2019-02-06T10:15:29.312Z,2.40
2019-02-06T10:18:18.746Z,2.33
2019-02-06T10:20:48.852Z,2.53
2019-02-06T10:23:29.242Z,2.67
2019-02-06T10:25:58.098Z,2.30
2019-02-06T10:28:26.721Z,2.30
2019-02-06T10:30:55.362Z,2.00
2019-02-06T10:33:24.030Z,2.00
2019-02-06T10:35:52.725Z,2.70
2019-02-06T10:38:21.397Z,2.70
2019-02-06T10:40:49.985Z,2.60
2019-02-06T10:43:19.025Z,2.50
2019-02-06T10:45:47.675Z,2.20
2019-02-06T10:48:16.381Z,2.30
2019-02-06T10:50:47.314Z,2.43
2019-02-06T10:53:16.622Z,2.60
2019-02-06T10:55:45.435Z,2.50
2019-02-06T10:58:14.254Z,2.60
2019-02-06T11:00:48.761Z,2.40
2019-02-06T11:03:17.634Z,2.27
2019-02-06T11:05:46.446Z,2.43
2019-02-06T11:08:15.354Z,2.37
2019-02-06T11:10:44.266Z,2.60
2019-02-06T11:13:12.973Z,1.97
2019-02-06T11:15:41.775Z,2.20
2019-02-06T11:18:10.498Z,2.43
2019-02-06T11:20:40.294Z,2.33
2019-02-06T11:23:09.204Z,2.23
2019-02-06T11:25:38.029Z,2.70
2019-02-06T11:28:07.652Z,2.40
2019-02-06T11:30:40.079Z,2.30
2019-02-06T11:33:09.193Z,2.40
2019-02-06T11:35:38.001Z,2.33
2019-02-06T11:38:07.882Z,2.67
2019-02-06T11:40:36.692Z,2.37
2019-02-06T11:43:06.298Z,2.17
2019-02-06T11:45:36.318Z,2.40
2019-02-06T11:48:05.818Z,2.13
2019-02-06T11:50:36.869Z,2.30
2019-02-06T11:53:07.081Z,2.87
2019-02-06T11:55:35.791Z,2.40
2019-02-06T11:58:05.397Z,2.80
2019-02-06T12:00:51.310Z,2.47
2019-02-06T12:03:22.180Z,2.80
2019-02-06T12:05:50.251Z,2.67
2019-02-06T12:08:18.954Z,2.77
2019-02-06T12:10:48.573Z,2.57
2019-02-06T12:13:17.214Z,2.60
2019-02-06T12:15:45.951Z,2.80
2019-02-06T12:18:14.764Z,2.60
2019-02-06T12:20:43.394Z,2.50
2019-02-06T12:23:12.263Z,2.70
2019-02-06T12:25:40.901Z,2.70
2019-02-06T12:28:09.797Z,2.60
2019-02-06T12:30:40.790Z,2.80
2019-02-06T12:33:09.519Z,2.67
2019-02-06T12:35:38.270Z,3.10
2019-02-06T12:38:06.976Z,3.13
2019-02-06T12:40:35.894Z,3.00
2019-02-06T12:43:06.402Z,2.97
2019-02-06T12:45:35.409Z,2.83
2019-02-06T12:48:05.125Z,2.93
2019-02-06T12:50:33.874Z,3.13
2019-02-06T12:53:02.503Z,3.23
2019-02-06T12:55:33.874Z,2.70
2019-02-06T12:58:02.591Z,3.03
2019-02-06T13:00:34.566Z,2.97
2019-02-06T13:03:03.344Z,2.97
2019-02-06T13:05:32.150Z,2.70
2019-02-06T13:08:00.958Z,2.80
2019-02-06T13:10:33.828Z,2.33
2019-02-06T13:13:00.045Z,1.80
2019-02-06T13:15:28.787Z,1.87
2019-02-06T13:17:57.589Z,2.30
2019-02-06T13:20:28.833Z,2.30
2019-02-06T13:22:57.534Z,2.40
2019-02-06T13:25:26.348Z,2.17
2019-02-06T13:27:54.922Z,2.20
2019-02-06T13:30:28.878Z,1.97
2019-02-06T13:32:57.522Z,2.40
2019-02-06T13:35:26.230Z,2.00
2019-02-06T13:37:55.042Z,1.90
2019-02-06T13:40:25.911Z,2.03
2019-02-06T13:42:54.773Z,2.30
2019-02-06T13:45:25.886Z,2.00
2019-02-06T13:47:54.590Z,1.87
2019-02-06T13:50:24.510Z,2.13
2019-02-06T13:52:53.146Z,2.10
2019-02-06T13:55:21.857Z,2.10
2019-02-06T13:57:51.878Z,2.00
2019-02-06T14:00:32.119Z,1.83
2019-02-06T14:03:00.826Z,1.77
2019-02-06T14:05:31.818Z,2.00
2019-02-06T14:08:02.834Z,1.80
2019-02-06T14:10:32.436Z,1.73
2019-02-06T14:13:01.860Z,1.80
2019-02-06T14:15:38.982Z,1.80
2019-02-06T14:18:08.002Z,1.60
2019-02-06T14:20:37.006Z,1.87
2019-02-06T14:23:11.287Z,1.60
2019-02-06T14:25:52.270Z,1.80
2019-02-06T14:28:26.831Z,1.80
2019-02-06T14:31:14.954Z,1.83
2019-02-06T14:33:46.941Z,1.73
2019-02-06T14:36:21.462Z,1.90
2019-02-06T14:38:59.354Z,1.60
2019-02-06T14:41:40.274Z,1.60
2019-02-06T14:44:21.293Z,2.00
2019-02-06T14:46:58.693Z,2.00
2019-02-06T14:49:30.550Z,1.80
2019-02-06T14:52:14.503Z,1.83
2019-02-06T14:55:07.482Z,1.90
2019-02-06T14:57:42.058Z,1.80
2019-02-06T15:00:41.039Z,2.10
2019-02-06T15:03:30.847Z,1.97
2019-02-06T15:06:23.645Z,2.43
2019-02-06T15:08:55.306Z,1.80
2019-02-06T15:11:26.946Z,2.00
2019-02-06T15:14:13.714Z,2.07
2019-02-06T15:17:07.994Z,2.30
2019-02-06T15:20:04.153Z,2.47
2019-02-06T15:22:44.269Z,2.33
2019-02-06T15:25:19.008Z,2.50
2019-02-06T15:27:53.314Z,2.10
2019-02-06T15:30:37.126Z,2.00
2019-02-06T15:33:36.110Z,2.03
2019-02-06T15:36:10.642Z,1.83
2019-02-06T15:38:48.022Z,2.57
2019-02-06T15:41:31.201Z,2.20
2019-02-06T15:44:04.870Z,2.20
2019-02-06T15:46:39.206Z,2.30
2019-02-06T15:49:22.654Z,2.03
2019-02-06T15:52:13.779Z,2.30
2019-02-06T15:54:48.141Z,2.23
2019-02-06T15:57:25.687Z,2.27
2019-02-06T16:00:00.329Z,2.37
2019-02-06T16:02:55.707Z,2.47
2019-02-06T16:05:50.366Z,2.10
2019-02-06T16:08:33.646Z,2.33
2019-02-06T16:11:24.757Z,2.00
2019-02-06T16:13:59.078Z,2.27
2019-02-06T16:16:37.518Z,2.10
2019-02-06T16:19:30.317Z,1.80
2019-02-06T16:22:22.718Z,2.10
2019-02-06T16:25:11.668Z,1.70
2019-02-06T16:27:49.488Z,2.00
2019-02-06T16:30:21.230Z,2.13
2019-02-06T16:33:04.822Z,2.03
2019-02-06T16:35:51.577Z,1.80
2019-02-06T16:38:39.666Z,2.20
2019-02-06T16:41:35.398Z,2.10
2019-02-06T16:44:19.002Z,2.17
2019-02-06T16:47:24.082Z,1.70
2019-02-06T16:50:18.862Z,1.53
2019-02-06T16:53:15.658Z,1.70
2019-02-06T16:56:05.178Z,1.90
2019-02-06T16:58:48.406Z,1.80
2019-02-06T17:01:22.866Z,1.67
2019-02-06T17:04:18.457Z,1.53
2019-02-06T17:07:01.861Z,1.90
2019-02-06T17:09:42.490Z,2.10
2019-02-06T17:12:32.215Z,2.37
2019-02-06T17:15:06.535Z,2.60
2019-02-06T17:17:40.758Z,1.70
2019-02-06T17:20:21.262Z,2.00
2019-02-06T17:23:04.233Z,2.20
2019-02-06T17:25:53.467Z,1.90
2019-02-06T17:28:30.931Z,1.83
2019-02-06T17:31:20.970Z,2.10
2019-02-06T17:33:55.279Z,2.10
2019-02-06T17:36:41.861Z,2.00
2019-02-06T17:39:23.781Z,2.20
2019-02-06T17:41:51.986Z,2.10
2019-02-06T17:44:26.246Z,2.13
2019-02-06T17:47:03.854Z,2.17
2019-02-06T17:49:43.930Z,2.30
2019-02-06T17:52:18.522Z,2.20
2019-02-06T17:55:09.299Z,2.60
2019-02-06T17:57:37.943Z,2.17
2019-02-06T18:00:21.150Z,2.53
2019-02-06T18:02:50.029Z,2.30
2019-02-06T18:05:18.595Z,2.43
2019-02-06T18:07:47.226Z,2.10
2019-02-06T18:10:18.610Z,2.23
2019-02-06T18:12:47.510Z,2.37
2019-02-06T18:15:16.435Z,2.27
2019-02-06T18:17:45.014Z,2.67
2019-02-06T18:20:18.581Z,2.50
2019-02-06T18:22:47.244Z,2.63
2019-02-06T18:25:16.758Z,2.57
2019-02-06T18:27:47.170Z,2.50
2019-02-06T18:30:20.898Z,2.57
2019-02-06T18:32:49.543Z,2.40
2019-02-06T18:35:18.342Z,2.50
2019-02-06T18:37:51.434Z,2.20
2019-02-06T18:40:27.454Z,2.43
2019-02-06T18:42:56.962Z,2.47
2019-02-06T18:45:27.901Z,2.60
2019-02-06T18:48:05.198Z,2.43
2019-02-06T18:50:36.613Z,2.27
2019-02-06T18:53:06.239Z,2.30
2019-02-06T18:55:35.446Z,2.27
2019-02-06T18:58:05.756Z,2.20
2019-02-06T19:00:42.807Z,2.30
2019-02-06T19:03:17.749Z,1.87
2019-02-06T19:05:46.461Z,2.10
2019-02-06T19:08:15.390Z,2.07
2019-02-06T19:10:44.223Z,1.97
2019-02-06T19:13:13.149Z,1.87
2019-02-06T19:15:41.757Z,2.27
2019-02-06T19:18:11.166Z,2.30
2019-02-06T19:20:39.844Z,2.40
2019-02-06T19:23:08.559Z,1.93
2019-02-06T19:25:37.265Z,2.20
2019-02-06T19:28:05.906Z,1.83
2019-02-06T19:30:40.517Z,2.27
2019-02-06T19:33:09.831Z,2.37
2019-02-06T19:35:38.603Z,2.50
2019-02-06T19:38:07.486Z,2.10
2019-02-06T19:40:36.191Z,2.37
2019-02-06T19:43:05.117Z,1.97
2019-02-06T19:45:33.821Z,2.10
2019-02-06T19:48:02.450Z,2.73
2019-02-06T19:50:39.534Z,3.17
2019-02-06T19:53:08.092Z,2.70
2019-02-06T19:55:36.666Z,2.13
2019-02-06T19:58:06.773Z,2.90
2019-02-06T20:00:36.386Z,2.50
2019-02-06T20:03:08.194Z,2.20
2019-02-06T20:05:37.115Z,2.50
2019-02-06T20:08:07.227Z,2.30
2019-02-06T20:10:38.470Z,2.23
2019-02-06T20:13:12.323Z,2.07
2019-02-06T20:15:37.381Z,2.80
2019-02-06T20:18:06.266Z,2.40
2019-02-06T20:20:35.370Z,2.27
2019-02-06T20:23:04.284Z,2.40
2019-02-06T20:25:32.851Z,2.07
2019-02-06T20:28:01.454Z,2.30
2019-02-06T20:30:34.262Z,2.70
2019-02-06T20:33:03.267Z,2.20
2019-02-06T20:35:31.981Z,2.40
2019-02-06T20:38:00.550Z,2.40
2019-02-06T20:40:31.365Z,2.57
2019-02-06T20:42:59.993Z,2.87
2019-02-06T20:45:28.629Z,2.80
2019-02-06T20:47:57.330Z,3.03
2019-02-06T20:50:30.667Z,2.83
2019-02-06T20:52:59.702Z,3.23
2019-02-06T20:55:28.531Z,2.77
2019-02-06T20:57:57.153Z,2.93
2019-02-06T21:00:30.621Z,3.00
2019-02-06T21:02:59.726Z,3.07
2019-02-06T21:05:28.430Z,3.30
2019-02-06T21:07:57.074Z,3.10
2019-02-06T21:10:28.349Z,3.07
2019-02-06T21:12:57.065Z,2.87
2019-02-06T21:15:25.630Z,2.93
2019-02-06T21:17:54.378Z,3.23
2019-02-06T21:20:24.282Z,3.10
2019-02-06T21:22:52.986Z,3.37
2019-02-06T21:25:26.538Z,3.47
2019-02-06T21:27:55.170Z,3.40
2019-02-06T21:30:26.467Z,3.77
2019-02-06T21:32:55.265Z,4.03
2019-02-06T21:35:24.385Z,4.53
2019-02-06T21:37:53.086Z,4.30
2019-02-06T21:40:27.014Z,4.40
2019-02-06T21:42:55.708Z,5.40
2019-02-06T21:45:24.403Z,5.10
2019-02-06T21:47:53.083Z,5.90
2019-02-06T21:50:25.358Z,5.07
2019-02-06T21:52:54.378Z,5.37
2019-02-06T21:55:24.488Z,5.77
2019-02-06T21:57:53.397Z,6.87
2019-02-06T22:00:30.098Z,7.30
2019-02-06T22:02:58.814Z,7.33
2019-02-06T22:05:27.521Z,6.93
2019-02-06T22:07:56.181Z,7.13
2019-02-06T22:10:24.941Z,8.10
2019-02-06T22:12:53.674Z,7.03
2019-02-06T22:15:27.886Z,6.77
2019-02-06T22:17:56.518Z,8.13
2019-02-06T22:20:25.666Z,7.47
2019-02-06T22:22:54.312Z,7.93
2019-02-06T22:25:22.954Z,7.47
2019-02-06T22:27:51.602Z,8.07
2019-02-06T22:30:22.582Z,8.20
2019-02-06T22:32:51.418Z,7.33
2019-02-06T22:35:20.646Z,8.30
2019-02-06T22:37:49.551Z,7.50
2019-02-06T22:40:22.655Z,7.40
2019-02-06T22:42:51.302Z,7.30
2019-02-06T22:45:28.146Z,8.03
2019-02-06T22:47:56.929Z,7.63
2019-02-06T22:50:29.683Z,7.70
2019-02-06T22:52:58.507Z,8.23
2019-02-06T22:55:27.159Z,7.53
2019-02-06T22:57:55.790Z,7.60
2019-02-06T23:00:29.087Z,8.77
2019-02-06T23:02:58.123Z,8.00
2019-02-06T23:05:26.849Z,7.73
2019-02-06T23:07:55.585Z,8.10
2019-02-06T23:10:25.573Z,9.03
2019-02-06T23:12:54.166Z,9.90
2019-02-06T23:15:22.870Z,8.93
2019-02-06T23:17:51.894Z,10.77
2019-02-06T23:20:20.574Z,8.70
2019-02-06T23:22:49.214Z,9.33
2019-02-06T23:25:17.790Z,10.13
2019-02-06T23:27:46.488Z,9.00
2019-02-06T23:30:16.002Z,9.77
2019-02-06T23:32:44.874Z,8.90
2019-02-06T23:35:13.678Z,9.93
2019-02-06T23:37:42.424Z,9.13
2019-02-06T23:40:13.935Z,9.83
2019-02-06T23:42:42.514Z,9.23
2019-02-06T23:45:11.725Z,9.97
2019-02-06T23:47:40.762Z,8.80
2019-02-06T23:50:17.798Z,7.87
2019-02-06T23:52:46.591Z,8.23
2019-02-06T23:55:15.413Z,8.50
2019-02-06T23:57:44.049Z,9.00
